Weather at High River Airport

Public forecast

Using degrees Celsius for public forecast. Weather courtesy of forecast.io.

Closest aviation weather report (METAR) to High River Airport

Closest report is Calgary International Airport, 35.7 nm (66.1 km) N.

2024/05/30 04:00 (retrieved 11 minutes ago)

CYYC 300400Z 01011G19KT 20SM -SHRA BKN041CB OVC091 06/03 A2992 RMK CB6AC2 CB ALQDS MOVG S SLP152

Closest aviation forecast (TAF) to High River Airport

Forecast is more than 6 hours old.

Closest forecast is Edmonton (CFB Namao) Heliport, 188.6 nm (349.4 km) N.

2024/05/29 18:30 Ammendment (retrieved 10 hours ago)

TAF AMD TAF AMD CYED 292328Z 2918/3006 CNL RMK END OF FLY PROGRAM NXT FCST BY 300000Z